Lisse — V7SE2 — position and weather

sailwx.info

Track history (hours):
 
Tides and Currents Weather Stations Pressure Air Temp Water Temp Dewpoint Dewpoint Depression Visibility Wind Speed Wind Dir Waves Ship Positions

Lisse

Last reported at 2017-Sep-26 22:33 UTC. Time now 2017-Oct-17 04:19 UTC.
Position N 27°23' W 015°13'.
Warning: this ship's position is 20 days out of date.

Length 128 m; draft 8.7 m.

Type: Tanker. MMSI: 538003630.

Date/timePositionNaut miles runAvg speedWind from/ knotsBaromVisibWave heightAir tempDewpointWater temp
2017-Sep-26 22:33N 27°23' W 015°13'212.3
2017-Sep-26 22:25N 27°25' W 015°13'512.1
2017-Sep-26 22:00N 27°30' W 015°13'612.5
2017-Sep-26 21:30N 27°36' W 015°13'612.9
2017-Sep-26 21:00N 27°42' W 015°11'612.7
2017-Sep-26 20:30N 27°48' W 015°08'612.4
2017-Sep-26 20:00N 27°54' W 015°06'612.6
2017-Sep-26 19:30N 28°00' W 015°04'5 9.7
2017-Sep-26 19:00N 28°04' W 015°07'612.5
2017-Sep-26 18:30N 28°06' W 015°14'612.4
2017-Sep-26 18:00N 28°08' W 015°21'3 5.8
2017-Sep-26 17:26N 28°09' W 015°24'0 0.0
2017-Sep-26 16:53N 28°09' W 015°24'0 0.0
2017-Sep-26 16:26N 28°09' W 015°24'0 0.0
2017-Sep-26 15:56N 28°09' W 015°24'0 0.0
2017-Sep-26 15:26N 28°09' W 015°24'0 0.1
2017-Sep-26 14:56N 28°09' W 015°24'0 0.0
2017-Sep-26 14:26N 28°09' W 015°24'0 0.1
2017-Sep-26 13:59N 28°09' W 015°24'0 0.0
2017-Sep-26 13:29N 28°09' W 015°24'0 0.0
2017-Sep-26 12:59N 28°09' W 015°24'0 0.1
2017-Sep-26 12:29N 28°09' W 015°24'0 0.0
2017-Sep-26 11:59N 28°09' W 015°24'0 0.1
2017-Sep-26 11:29N 28°09' W 015°24'0 0.1
2017-Sep-26 11:00N 28°09' W 015°24'1 1.3
2017-Sep-26 10:30N 28°08' W 015°23'2 4.2
2017-Sep-26 10:00N 28°07' W 015°21'2 4.0
2017-Sep-26 09:30N 28°08' W 015°19'611.3
2017-Sep-26 09:00N 28°09' W 015°13'4 7.8
2017-Sep-26 08:30N 28°09' W 015°09'611.9
2017-Sep-26 08:00N 28°10' W 015°02'510.9
2017-Sep-26 07:30N 28°15' W 014°58'612.7
2017-Sep-26 07:00N 28°21' W 014°56'612.6
2017-Sep-26 06:30N 28°27' W 014°53'712.9
2017-Sep-26 06:00N 28°33' W 014°50'613.0
2017-Sep-26 05:30N 28°39' W 014°48'612.6
2017-Sep-26 05:00N 28°45' W 014°45'612.5
2017-Sep-26 04:30N 28°51' W 014°43'612.3
2017-Sep-26 04:00N 28°56' W 014°41'612.1
2017-Sep-26 03:30N 29°02' W 014°39'611.9
2017-Sep-26 03:00N 29°08' W 014°36'611.8
2017-Sep-26 02:30N 29°13' W 014°34'1611.6
2017-Sep-26 01:08N 29°28' W 014°29'512.2
2017-Sep-26 00:41N 29°34' W 014°28'612.1
2017-Sep-26 00:11N 29°40' W 014°27'412.1
2017-Sep-25 23:51N 29°44' W 014°27'411.9
2017-Sep-25 23:30N 29°48' W 014°27'611.9
2017-Sep-25 23:00N 29°54' W 014°26'611.9
2017-Sep-25 22:30N 29°60' W 014°25'612.1
2017-Sep-25 22:00N 30°06' W 014°24'10012.7
2017-Sep-25 14:07N 31°46' W 014°13'113.1
2017-Sep-25 14:00N 31°47' W 014°12'613.0
2017-Sep-25 13:30N 31°54' W 014°11'713.0
2017-Sep-25 13:00N 32°00' W 014°11'4312.5
2017-Sep-25 09:32N 32°43' W 014°05'612.3
2017-Sep-25 09:03N 32°49' W 014°05'2411.8
2017-Sep-25 07:02N 33°13' W 014°02'111.3
2017-Sep-25 06:59N 33°13' W 014°02'511.6
2017-Sep-25 06:30N 33°19' W 014°01'811.7
2017-Sep-25 05:51N 33°26' W 013°60'411.7
2017-Sep-25 05:30N 33°30' W 013°59'811.9
2017-Sep-25 04:50N 33°38' W 013°59'412.0
2017-Sep-25 04:30N 33°42' W 013°58'711.7
2017-Sep-25 03:53N 33°50' W 013°57'1411.7
2017-Sep-25 02:41N 34°03' W 013°56'211.8
2017-Sep-25 02:30N 34°06' W 013°56'611.8
2017-Sep-25 02:00N 34°11' W 013°55'611.6
2017-Sep-25 01:30N 34°17' W 013°54'612.1
2017-Sep-25 01:00N 34°23' W 013°53'612.3
2017-Sep-25 00:30N 34°29' W 013°53'612.3
2017-Sep-25 00:00N 34°35' W 013°52'612.3
2017-Sep-24 23:30N 34°42' W 013°51'612.2
2017-Sep-24 23:00N 34°48' W 013°50'611.9
2017-Sep-24 22:29N 34°54' W 013°50'612.3
2017-Sep-24 21:59N 34°60' W 013°49'612.5
2017-Sep-24 21:30N 35°06' W 013°48'612.2
2017-Sep-24 21:00N 35°12' W 013°47'612.0
2017-Sep-24 20:30N 35°18' W 013°47'9612.0
2017-Sep-24 12:31N 36°53' W 013°34'112.2
2017-Sep-24 12:28N 36°54' W 013°34'15811.4
2017-Sep-23 22:38N 39°31' W 013°14'211.3
2017-Sep-23 22:30N 39°33' W 013°14'  
2017-Sep-21 00:03N 49°40' W 004°47'211.6
2017-Sep-20 23:52N 49°41' W 004°44'511.6
2017-Sep-20 23:29N 49°42' W 004°37'510.7
2017-Sep-20 23:00N 49°42' W 004°29'611.4
2017-Sep-20 22:28N 49°43' W 004°20'611.2
2017-Sep-20 21:58N 49°45' W 004°12'510.9
2017-Sep-20 21:30N 49°46' W 004°05'510.6
2017-Sep-20 21:00N 49°48' W 003°57'510.1
2017-Sep-20 20:30N 49°49' W 003°49'5 9.3
2017-Sep-20 20:00N 49°51' W 003°42'5 9.7
2017-Sep-20 19:30N 49°51' W 003°35'5 9.7
2017-Sep-20 19:00N 49°52' W 003°27'5 9.5
2017-Sep-20 18:30N 49°53' W 003°20'5 9.6
2017-Sep-20 18:00N 49°55' W 003°13'5 9.8
2017-Sep-20 17:30N 49°56' W 003°06'510.3
2017-Sep-20 17:00N 49°58' W 002°59'611.2
2017-Sep-20 16:30N 49°59' W 002°50'612.0
2017-Sep-20 16:00N 50°01' W 002°41'2814.2
2017-Sep-20 14:00N 50°09' W 001°59'815.4
2017-Sep-20 13:30N 50°11' W 001°47'815.1
2017-Sep-20 13:00N 50°13' W 001°36'714.4
2017-Sep-20 12:30N 50°15' W 001°25'713.5
2017-Sep-20 12:00N 50°17' W 001°15'3010.3
2017-Sep-20 09:05N 50°25' W 000°29'1 8.7
2017-Sep-20 09:00N 50°25' W 000°28'4 8.7
2017-Sep-20 08:30N 50°26' W 000°22'5 9.0
2017-Sep-20 08:00N 50°27' W 000°15'5 9.7
2017-Sep-20 07:30N 50°29' W 000°07'510.3
2017-Sep-20 07:00N 50°30' E 000°00'611.0
2017-Sep-20 06:30N 50°31' E 000°09'611.8
2017-Sep-20 06:00N 50°33' E 000°18'612.5
2017-Sep-20 05:30N 50°35' E 000°27'713.0
2017-Sep-20 05:00N 50°37' E 000°37'713.1
2017-Sep-20 04:30N 50°41' E 000°45'713.1
2017-Sep-20 04:00N 50°45' E 000°53'612.9
2017-Sep-20 03:30N 50°49' E 001°01'612.4
2017-Sep-20 03:00N 50°53' E 001°09'611.9
2017-Sep-20 02:30N 50°57' E 001°15'611.1
2017-Sep-20 02:00N 51°01' E 001°22'510.3
2017-Sep-20 01:30N 51°04' E 001°28'5 9.3
2017-Sep-20 01:00N 51°07' E 001°34'4 8.6
2017-Sep-20 00:30N 51°10' E 001°39'5 9.0
2017-Sep-20 00:00N 51°13' E 001°45'5 9.4
2017-Sep-19 23:30N 51°16' E 001°49'510.2
2017-Sep-19 23:00N 51°21' E 001°52'611.3
2017-Sep-19 22:30N 51°26' E 001°56'612.4
2017-Sep-19 22:00N 51°31' E 002°03'713.1
2017-Sep-19 21:31N 51°36' E 002°10'713.4
2017-Sep-19 21:01N 51°41' E 002°17'4812.8
2017-Sep-19 17:16N 52°23' E 002°53'311.8
2017-Sep-19 16:59N 52°26' E 002°55'611.6
2017-Sep-19 16:29N 52°31' E 002°60'203 9.9
2017-Sep-18 20:04N 54°02' E 008°04'110.9
2017-Sep-18 20:00N 54°01' E 008°05'510.3
2017-Sep-18 19:30N 54°00' E 008°13'5 9.6
2017-Sep-18 19:00N 53°60' E 008°22'510.2
2017-Sep-18 18:30N 53°58' E 008°30'611.6
2017-Sep-18 18:00N 53°57' E 008°39'714.0
2017-Sep-18 17:30N 53°51' E 008°46'714.2
2017-Sep-18 17:00N 53°51' E 008°58'612.7
2017-Sep-18 16:30N 53°53' E 009°08'0 0.9
2017-Sep-18 16:00N 53°54' E 009°09'0 0.0
2017-Sep-18 15:30N 53°54' E 009°09'1 1.5
2017-Sep-18 15:00N 53°54' E 009°10'0 0.1
2017-Sep-18 14:30N 53°54' E 009°10'1 1.1
2017-Sep-18 14:00N 53°54' E 009°10'3 6.0
2017-Sep-18 13:30N 53°57' E 009°14'4 8.0
2017-Sep-18 13:00N 54°00' E 009°18'4 7.9
2017-Sep-18 12:30N 54°04' E 009°19'44 4.9
2017-Sep-18 03:23N 54°31' E 010°20'4 7.7
2017-Sep-18 02:49N 54°32' E 010°27'2 7.9
2017-Sep-18 02:30N 54°33' E 010°31'4 8.3
2017-Sep-18 02:00N 54°35' E 010°37'4 7.7
2017-Sep-18 01:30N 54°36' E 010°43'3 6.2
2017-Sep-18 01:00N 54°36' E 010°49'611.3
2017-Sep-18 00:30N 54°36' E 010°58'611.9
2017-Sep-18 00:01N 54°36' E 011°09'612.8
2017-Sep-17 23:30N 54°34' E 011°19'612.6
2017-Sep-17 23:00N 54°31' E 011°29'611.5
2017-Sep-17 22:30N 54°29' E 011°38'611.9
2017-Sep-17 22:00N 54°26' E 011°47'711.8
2017-Sep-17 21:24N 54°26' E 011°59'511.5
2017-Sep-17 21:00N 54°27' E 012°07'611.1
2017-Sep-17 20:30N 54°31' E 012°12'611.9
2017-Sep-17 20:00N 54°37' E 012°15'811.9
2017-Sep-17 19:19N 54°41' E 012°27'511.8
2017-Sep-17 18:55N 54°44' E 012°34'511.7
2017-Sep-17 18:30N 54°47' E 012°41'3511.8
2017-Sep-17 15:32N 54°59' E 013°38'512.0
2017-Sep-17 15:09N 55°00' E 013°45'411.9
2017-Sep-17 14:50N 55°01' E 013°52'711.8
2017-Sep-17 14:15N 55°04' E 014°03'711.7
2017-Sep-17 13:37N 55°09' E 014°12'312.0
2017-Sep-17 13:23N 55°12' E 014°15'512.1
2017-Sep-17 12:59N 55°15' E 014°20'611.9
2017-Sep-17 12:30N 55°20' E 014°26'612.1
2017-Sep-17 11:59N 55°25' E 014°33'611.8
2017-Sep-17 11:30N 55°28' E 014°41'612.1
2017-Sep-17 10:59N 55°31' E 014°51'612.1
2017-Sep-17 10:29N 55°34' E 015°00'611.9
2017-Sep-17 10:00N 55°37' E 015°09'612.0
2017-Sep-17 09:31N 55°39' E 015°19'612.3
2017-Sep-17 09:00N 55°40' E 015°30'612.2
2017-Sep-17 08:30N 55°42' E 015°40'612.3
2017-Sep-17 08:00N 55°43' E 015°51'612.4
2017-Sep-17 07:30N 55°45' E 016°02'612.2
2017-Sep-17 07:01N 55°47' E 016°12'612.2
2017-Sep-17 06:30N 55°48' E 016°23'612.3
2017-Sep-17 06:01N 55°49' E 016°33'612.2
2017-Sep-17 05:30N 55°51' E 016°44'612.1
2017-Sep-17 05:00N 55°53' E 016°54'612.1
2017-Sep-17 04:30N 55°54' E 017°05'  
Track history (hours):
 
Tides and Currents Weather Stations Pressure Air Temp Water Temp Dewpoint Dewpoint Depression Visibility Wind Speed Wind Dir Waves Ship Positions

Lisse

Last reported at 2017-Sep-26 22:33 UTC. Time now 2017-Oct-17 04:19 UTC.
Position N 27°23' W 015°13'.
Warning: this ship's position is 20 days out of date.

Length 128 m; draft 8.7 m.

Type: Tanker. MMSI: 538003630.

Date/timePositionNaut miles runAvg speedWind from/ knotsBaromVisibWave heightAir tempDewpointWater temp
2017-Sep-26 22:33N 27°23' W 015°13'212.3
2017-Sep-26 22:25N 27°25' W 015°13'512.1
2017-Sep-26 22:00N 27°30' W 015°13'612.5
2017-Sep-26 21:30N 27°36' W 015°13'612.9
2017-Sep-26 21:00N 27°42' W 015°11'612.7
2017-Sep-26 20:30N 27°48' W 015°08'612.4
2017-Sep-26 20:00N 27°54' W 015°06'612.6
2017-Sep-26 19:30N 28°00' W 015°04'5 9.7
2017-Sep-26 19:00N 28°04' W 015°07'612.5
2017-Sep-26 18:30N 28°06' W 015°14'612.4
2017-Sep-26 18:00N 28°08' W 015°21'3 5.8
2017-Sep-26 17:26N 28°09' W 015°24'0 0.0
2017-Sep-26 16:53N 28°09' W 015°24'0 0.0
2017-Sep-26 16:26N 28°09' W 015°24'0 0.0
2017-Sep-26 15:56N 28°09' W 015°24'0 0.0
2017-Sep-26 15:26N 28°09' W 015°24'0 0.1
2017-Sep-26 14:56N 28°09' W 015°24'0 0.0
2017-Sep-26 14:26N 28°09' W 015°24'0 0.1
2017-Sep-26 13:59N 28°09' W 015°24'0 0.0
2017-Sep-26 13:29N 28°09' W 015°24'0 0.0
2017-Sep-26 12:59N 28°09' W 015°24'0 0.1
2017-Sep-26 12:29N 28°09' W 015°24'0 0.0
2017-Sep-26 11:59N 28°09' W 015°24'0 0.1
2017-Sep-26 11:29N 28°09' W 015°24'0 0.1
2017-Sep-26 11:00N 28°09' W 015°24'1 1.3
2017-Sep-26 10:30N 28°08' W 015°23'2 4.2
2017-Sep-26 10:00N 28°07' W 015°21'2 4.0
2017-Sep-26 09:30N 28°08' W 015°19'611.3
2017-Sep-26 09:00N 28°09' W 015°13'4 7.8
2017-Sep-26 08:30N 28°09' W 015°09'611.9
2017-Sep-26 08:00N 28°10' W 015°02'510.9
2017-Sep-26 07:30N 28°15' W 014°58'612.7
2017-Sep-26 07:00N 28°21' W 014°56'612.6
2017-Sep-26 06:30N 28°27' W 014°53'712.9
2017-Sep-26 06:00N 28°33' W 014°50'613.0
2017-Sep-26 05:30N 28°39' W 014°48'612.6
2017-Sep-26 05:00N 28°45' W 014°45'612.5
2017-Sep-26 04:30N 28°51' W 014°43'612.3
2017-Sep-26 04:00N 28°56' W 014°41'612.1
2017-Sep-26 03:30N 29°02' W 014°39'611.9
2017-Sep-26 03:00N 29°08' W 014°36'611.8
2017-Sep-26 02:30N 29°13' W 014°34'1611.6
2017-Sep-26 01:08N 29°28' W 014°29'512.2
2017-Sep-26 00:41N 29°34' W 014°28'612.1
2017-Sep-26 00:11N 29°40' W 014°27'412.1
2017-Sep-25 23:51N 29°44' W 014°27'411.9
2017-Sep-25 23:30N 29°48' W 014°27'611.9
2017-Sep-25 23:00N 29°54' W 014°26'611.9
2017-Sep-25 22:30N 29°60' W 014°25'612.1
2017-Sep-25 22:00N 30°06' W 014°24'10012.7
2017-Sep-25 14:07N 31°46' W 014°13'113.1
2017-Sep-25 14:00N 31°47' W 014°12'613.0
2017-Sep-25 13:30N 31°54' W 014°11'713.0
2017-Sep-25 13:00N 32°00' W 014°11'4312.5
2017-Sep-25 09:32N 32°43' W 014°05'612.3
2017-Sep-25 09:03N 32°49' W 014°05'2411.8
2017-Sep-25 07:02N 33°13' W 014°02'111.3
2017-Sep-25 06:59N 33°13' W 014°02'511.6
2017-Sep-25 06:30N 33°19' W 014°01'811.7
2017-Sep-25 05:51N 33°26' W 013°60'411.7
2017-Sep-25 05:30N 33°30' W 013°59'811.9
2017-Sep-25 04:50N 33°38' W 013°59'412.0
2017-Sep-25 04:30N 33°42' W 013°58'711.7
2017-Sep-25 03:53N 33°50' W 013°57'1411.7
2017-Sep-25 02:41N 34°03' W 013°56'211.8
2017-Sep-25 02:30N 34°06' W 013°56'611.8
2017-Sep-25 02:00N 34°11' W 013°55'611.6
2017-Sep-25 01:30N 34°17' W 013°54'612.1
2017-Sep-25 01:00N 34°23' W 013°53'612.3
2017-Sep-25 00:30N 34°29' W 013°53'612.3
2017-Sep-25 00:00N 34°35' W 013°52'612.3
2017-Sep-24 23:30N 34°42' W 013°51'612.2
2017-Sep-24 23:00N 34°48' W 013°50'611.9
2017-Sep-24 22:29N 34°54' W 013°50'612.3
2017-Sep-24 21:59N 34°60' W 013°49'612.5
2017-Sep-24 21:30N 35°06' W 013°48'612.2
2017-Sep-24 21:00N 35°12' W 013°47'612.0
2017-Sep-24 20:30N 35°18' W 013°47'9612.0
2017-Sep-24 12:31N 36°53' W 013°34'112.2
2017-Sep-24 12:28N 36°54' W 013°34'15811.4
2017-Sep-23 22:38N 39°31' W 013°14'211.3
2017-Sep-23 22:30N 39°33' W 013°14'  
2017-Sep-21 00:03N 49°40' W 004°47'211.6
2017-Sep-20 23:52N 49°41' W 004°44'511.6
2017-Sep-20 23:29N 49°42' W 004°37'510.7
2017-Sep-20 23:00N 49°42' W 004°29'611.4
2017-Sep-20 22:28N 49°43' W 004°20'611.2
2017-Sep-20 21:58N 49°45' W 004°12'510.9
2017-Sep-20 21:30N 49°46' W 004°05'510.6
2017-Sep-20 21:00N 49°48' W 003°57'510.1
2017-Sep-20 20:30N 49°49' W 003°49'5 9.3
2017-Sep-20 20:00N 49°51' W 003°42'5 9.7
2017-Sep-20 19:30N 49°51' W 003°35'5 9.7
2017-Sep-20 19:00N 49°52' W 003°27'5 9.5
2017-Sep-20 18:30N 49°53' W 003°20'5 9.6
2017-Sep-20 18:00N 49°55' W 003°13'5 9.8
2017-Sep-20 17:30N 49°56' W 003°06'510.3
2017-Sep-20 17:00N 49°58' W 002°59'611.2
2017-Sep-20 16:30N 49°59' W 002°50'612.0
2017-Sep-20 16:00N 50°01' W 002°41'2814.2
2017-Sep-20 14:00N 50°09' W 001°59'815.4
2017-Sep-20 13:30N 50°11' W 001°47'815.1
2017-Sep-20 13:00N 50°13' W 001°36'714.4
2017-Sep-20 12:30N 50°15' W 001°25'713.5
2017-Sep-20 12:00N 50°17' W 001°15'3010.3
2017-Sep-20 09:05N 50°25' W 000°29'1 8.7
2017-Sep-20 09:00N 50°25' W 000°28'4 8.7
2017-Sep-20 08:30N 50°26' W 000°22'5 9.0
2017-Sep-20 08:00N 50°27' W 000°15'5 9.7
2017-Sep-20 07:30N 50°29' W 000°07'510.3
2017-Sep-20 07:00N 50°30' E 000°00'611.0
2017-Sep-20 06:30N 50°31' E 000°09'611.8
2017-Sep-20 06:00N 50°33' E 000°18'612.5
2017-Sep-20 05:30N 50°35' E 000°27'713.0
2017-Sep-20 05:00N 50°37' E 000°37'713.1
2017-Sep-20 04:30N 50°41' E 000°45'713.1
2017-Sep-20 04:00N 50°45' E 000°53'612.9
2017-Sep-20 03:30N 50°49' E 001°01'612.4
2017-Sep-20 03:00N 50°53' E 001°09'611.9
2017-Sep-20 02:30N 50°57' E 001°15'611.1
2017-Sep-20 02:00N 51°01' E 001°22'510.3
2017-Sep-20 01:30N 51°04' E 001°28'5 9.3
2017-Sep-20 01:00N 51°07' E 001°34'4 8.6
2017-Sep-20 00:30N 51°10' E 001°39'5 9.0
2017-Sep-20 00:00N 51°13' E 001°45'5 9.4
2017-Sep-19 23:30N 51°16' E 001°49'510.2
2017-Sep-19 23:00N 51°21' E 001°52'611.3
2017-Sep-19 22:30N 51°26' E 001°56'612.4
2017-Sep-19 22:00N 51°31' E 002°03'713.1
2017-Sep-19 21:31N 51°36' E 002°10'713.4
2017-Sep-19 21:01N 51°41' E 002°17'4812.8
2017-Sep-19 17:16N 52°23' E 002°53'311.8
2017-Sep-19 16:59N 52°26' E 002°55'611.6
2017-Sep-19 16:29N 52°31' E 002°60'203 9.9
2017-Sep-18 20:04N 54°02' E 008°04'110.9
2017-Sep-18 20:00N 54°01' E 008°05'510.3
2017-Sep-18 19:30N 54°00' E 008°13'5 9.6
2017-Sep-18 19:00N 53°60' E 008°22'510.2
2017-Sep-18 18:30N 53°58' E 008°30'611.6
2017-Sep-18 18:00N 53°57' E 008°39'714.0
2017-Sep-18 17:30N 53°51' E 008°46'714.2
2017-Sep-18 17:00N 53°51' E 008°58'612.7
2017-Sep-18 16:30N 53°53' E 009°08'0 0.9
2017-Sep-18 16:00N 53°54' E 009°09'0 0.0
2017-Sep-18 15:30N 53°54' E 009°09'1 1.5
2017-Sep-18 15:00N 53°54' E 009°10'0 0.1
2017-Sep-18 14:30N 53°54' E 009°10'1 1.1
2017-Sep-18 14:00N 53°54' E 009°10'3 6.0
2017-Sep-18 13:30N 53°57' E 009°14'4 8.0
2017-Sep-18 13:00N 54°00' E 009°18'4 7.9
2017-Sep-18 12:30N 54°04' E 009°19'44 4.9
2017-Sep-18 03:23N 54°31' E 010°20'4 7.7
2017-Sep-18 02:49N 54°32' E 010°27'2 7.9
2017-Sep-18 02:30N 54°33' E 010°31'4 8.3
2017-Sep-18 02:00N 54°35' E 010°37'4 7.7
2017-Sep-18 01:30N 54°36' E 010°43'3 6.2
2017-Sep-18 01:00N 54°36' E 010°49'611.3
2017-Sep-18 00:30N 54°36' E 010°58'611.9
2017-Sep-18 00:01N 54°36' E 011°09'612.8
2017-Sep-17 23:30N 54°34' E 011°19'612.6
2017-Sep-17 23:00N 54°31' E 011°29'611.5
2017-Sep-17 22:30N 54°29' E 011°38'611.9
2017-Sep-17 22:00N 54°26' E 011°47'711.8
2017-Sep-17 21:24N 54°26' E 011°59'511.5
2017-Sep-17 21:00N 54°27' E 012°07'611.1
2017-Sep-17 20:30N 54°31' E 012°12'611.9
2017-Sep-17 20:00N 54°37' E 012°15'811.9
2017-Sep-17 19:19N 54°41' E 012°27'511.8
2017-Sep-17 18:55N 54°44' E 012°34'511.7
2017-Sep-17 18:30N 54°47' E 012°41'3511.8
2017-Sep-17 15:32N 54°59' E 013°38'512.0
2017-Sep-17 15:09N 55°00' E 013°45'411.9
2017-Sep-17 14:50N 55°01' E 013°52'711.8
2017-Sep-17 14:15N 55°04' E 014°03'711.7
2017-Sep-17 13:37N 55°09' E 014°12'312.0
2017-Sep-17 13:23N 55°12' E 014°15'512.1
2017-Sep-17 12:59N 55°15' E 014°20'611.9
2017-Sep-17 12:30N 55°20' E 014°26'612.1
2017-Sep-17 11:59N 55°25' E 014°33'611.8
2017-Sep-17 11:30N 55°28' E 014°41'612.1
2017-Sep-17 10:59N 55°31' E 014°51'612.1
2017-Sep-17 10:29N 55°34' E 015°00'611.9
2017-Sep-17 10:00N 55°37' E 015°09'612.0
2017-Sep-17 09:31N 55°39' E 015°19'612.3
2017-Sep-17 09:00N 55°40' E 015°30'612.2
2017-Sep-17 08:30N 55°42' E 015°40'612.3
2017-Sep-17 08:00N 55°43' E 015°51'612.4
2017-Sep-17 07:30N 55°45' E 016°02'612.2
2017-Sep-17 07:01N 55°47' E 016°12'612.2
2017-Sep-17 06:30N 55°48' E 016°23'612.3
2017-Sep-17 06:01N 55°49' E 016°33'612.2
2017-Sep-17 05:30N 55°51' E 016°44'612.1
2017-Sep-17 05:00N 55°53' E 016°54'612.1
2017-Sep-17 04:30N 55°54' E 017°05'  

Dump ship's entire track history